sensor_id;sensor_type;location;lat;lon;timestamp;pressure;altitude;pressure_sealevel;temperature;humidity
54816;BME280;40715;55.752;37.884;2022-10-15T00:00:08;99759.78;;;12.59;44.42
54816;BME280;40715;55.752;37.884;2022-10-15T00:02:35;99752.69;;;12.59;44.47
54816;BME280;40715;55.752;37.884;2022-10-15T00:05:02;99757.03;;;12.62;44.46
54816;BME280;40715;55.752;37.884;2022-10-15T00:07:29;99744.97;;;12.53;44.50
54816;BME280;40715;55.752;37.884;2022-10-15T00:09:56;99759.63;;;12.64;44.45
54816;BME280;40715;55.752;37.884;2022-10-15T00:12:23;99753.50;;;12.63;44.37
54816;BME280;40715;55.752;37.884;2022-10-15T00:14:50;99761.47;;;12.62;44.41
54816;BME280;40715;55.752;37.884;2022-10-15T00:17:17;99764.97;;;12.62;44.45
54816;BME280;40715;55.752;37.884;2022-10-15T00:19:44;99760.47;;;12.66;44.52
54816;BME280;40715;55.752;37.884;2022-10-15T00:22:11;99759.47;;;12.70;44.26
54816;BME280;40715;55.752;37.884;2022-10-15T00:24:38;99760.38;;;12.69;44.28
54816;BME280;40715;55.752;37.884;2022-10-15T00:27:05;99763.88;;;12.69;44.48
54816;BME280;40715;55.752;37.884;2022-10-15T00:29:32;99770.00;;;12.71;44.15
54816;BME280;40715;55.752;37.884;2022-10-15T00:31:59;99756.19;;;12.62;44.10
54816;BME280;40715;55.752;37.884;2022-10-15T00:34:26;99757.84;;;12.66;44.26
54816;BME280;40715;55.752;37.884;2022-10-15T00:36:53;99765.53;;;12.73;44.19
54816;BME280;40715;55.752;37.884;2022-10-15T00:39:20;99767.38;;;12.71;44.21
54816;BME280;40715;55.752;37.884;2022-10-15T00:41:47;99742.41;;;12.50;44.17
54816;BME280;40715;55.752;37.884;2022-10-15T00:46:50;99765.81;;;12.63;44.33
54816;BME280;40715;55.752;37.884;2022-10-15T00:51:52;99755.25;;;12.63;44.37
54816;BME280;40715;55.752;37.884;2022-10-15T00:54:20;99755.25;;;12.63;44.36
54816;BME280;40715;55.752;37.884;2022-10-15T00:56:48;99757.88;;;12.64;44.47
54816;BME280;40715;55.752;37.884;2022-10-15T00:59:17;99764.88;;;12.65;44.37
54816;BME280;40715;55.752;37.884;2022-10-15T01:01:45;99765.72;;;12.67;44.25
54816;BME280;40715;55.752;37.884;2022-10-15T01:04:13;99762.16;;;12.68;44.30
54816;BME280;40715;55.752;37.884;2022-10-15T01:06:40;99765.78;;;12.66;44.25
54816;BME280;40715;55.752;37.884;2022-10-15T01:09:08;99758.03;;;12.58;44.38
54816;BME280;40715;55.752;37.884;2022-10-15T01:11:47;99770.00;;;12.71;44.46
54816;BME280;40715;55.752;37.884;2022-10-15T01:22:05;99768.22;;;12.72;44.44
54816;BME280;40715;55.752;37.884;2022-10-15T01:32:27;99768.28;;;12.70;44.31
54816;BME280;40715;55.752;37.884;2022-10-15T01:37:49;99780.50;;;12.74;44.17
54816;BME280;40715;55.752;37.884;2022-10-15T01:42:58;99775.25;;;12.73;44.08
54816;BME280;40715;55.752;37.884;2022-10-15T01:45:39;99777.84;;;12.74;44.17
54816;BME280;40715;55.752;37.884;2022-10-15T01:48:11;99781.34;;;12.75;44.21
54816;BME280;40715;55.752;37.884;2022-10-15T01:50:45;99782.25;;;12.74;44.19
54816;BME280;40715;55.752;37.884;2022-10-15T01:53:15;99776.09;;;12.73;44.14
54816;BME280;40715;55.752;37.884;2022-10-15T01:55:44;99784.03;;;12.73;44.29
54816;BME280;40715;55.752;37.884;2022-10-15T01:58:14;99786.78;;;12.70;44.20
54816;BME280;40715;55.752;37.884;2022-10-15T02:00:42;99790.97;;;12.77;44.25
54816;BME280;40715;55.752;37.884;2022-10-15T02:03:09;99779.59;;;12.75;44.16
54816;BME280;40715;55.752;37.884;2022-10-15T02:06:03;99787.38;;;12.80;44.15
54816;BME280;40715;55.752;37.884;2022-10-15T02:08:36;99785.78;;;12.74;44.00
54816;BME280;40715;55.752;37.884;2022-10-15T02:11:08;99739.72;;;12.52;44.17
54816;BME280;40715;55.752;37.884;2022-10-15T02:19:36;99782.25;;;12.74;43.93
54816;BME280;40715;55.752;37.884;2022-10-15T02:22:14;99785.03;;;12.69;44.00
54816;BME280;40715;55.752;37.884;2022-10-15T02:24:48;99781.53;;;12.69;44.12
54816;BME280;40715;55.752;37.884;2022-10-15T02:27:20;99779.09;;;12.61;44.05
54816;BME280;40715;55.752;37.884;2022-10-15T02:29:49;99775.78;;;12.54;44.23
54816;BME280;40715;55.752;37.884;2022-10-15T02:32:20;99793.16;;;12.63;44.20
54816;BME280;40715;55.752;37.884;2022-10-15T02:34:49;99793.16;;;12.63;44.33
54816;BME280;40715;55.752;37.884;2022-10-15T02:37:20;99795.59;;;12.69;44.29
54816;BME280;40715;55.752;37.884;2022-10-15T02:39:48;99804.38;;;12.71;44.15
54816;BME280;40715;55.752;37.884;2022-10-15T02:42:16;99799.91;;;12.73;44.21
54816;BME280;40715;55.752;37.884;2022-10-15T02:44:44;99806.94;;;12.74;44.21
54816;BME280;40715;55.752;37.884;2022-10-15T02:47:11;99804.38;;;12.71;44.39
54816;BME280;40715;55.752;37.884;2022-10-15T02:49:38;99800.00;;;12.70;44.13
54816;BME280;40715;55.752;37.884;2022-10-15T02:52:05;99814.88;;;12.74;44.22
54816;BME280;40715;55.752;37.884;2022-10-15T02:54:32;99791.44;;;12.60;44.19
54816;BME280;40715;55.752;37.884;2022-10-15T02:56:59;99810.44;;;12.75;44.11
54816;BME280;40715;55.752;37.884;2022-10-15T02:59:26;99813.22;;;12.70;44.23
54816;BME280;40715;55.752;37.884;2022-10-15T03:01:53;99808.88;;;12.68;44.04
54816;BME280;40715;55.752;37.884;2022-10-15T03:04:20;99821.91;;;12.75;44.27
54816;BME280;40715;55.752;37.884;2022-10-15T03:06:47;99800.94;;;12.68;44.20
54816;BME280;40715;55.752;37.884;2022-10-15T03:09:14;99814.81;;;12.76;44.27
54816;BME280;40715;55.752;37.884;2022-10-15T03:11:40;99811.34;;;12.74;44.13
54816;BME280;40715;55.752;37.884;2022-10-15T03:14:07;99815.66;;;12.76;44.09
54816;BME280;40715;55.752;37.884;2022-10-15T03:16:34;99815.66;;;12.76;44.19
54816;BME280;40715;55.752;37.884;2022-10-15T03:19:01;99820.00;;;12.79;44.10
54816;BME280;40715;55.752;37.884;2022-10-15T03:21:28;99813.88;;;12.78;44.07
54816;BME280;40715;55.752;37.884;2022-10-15T03:23:57;99812.97;;;12.78;44.04
54816;BME280;40715;55.752;37.884;2022-10-15T03:26:25;99819.19;;;12.77;44.35
54816;BME280;40715;55.752;37.884;2022-10-15T03:28:51;99817.41;;;12.77;43.97
54816;BME280;40715;55.752;37.884;2022-10-15T03:31:18;99804.38;;;12.71;43.98
54816;BME280;40715;55.752;37.884;2022-10-15T03:33:46;99819.16;;;12.78;43.91
54816;BME280;40715;55.752;37.884;2022-10-15T03:36:12;99820.06;;;12.77;43.89
54816;BME280;40715;55.752;37.884;2022-10-15T03:38:39;99768.22;;;12.40;43.96
54816;BME280;40715;55.752;37.884;2022-10-15T03:41:07;99821.91;;;12.74;43.93
54816;BME280;40715;55.752;37.884;2022-10-15T03:43:34;99816.63;;;12.74;43.86
54816;BME280;40715;55.752;37.884;2022-10-15T03:46:06;99806.19;;;12.69;43.96
54816;BME280;40715;55.752;37.884;2022-10-15T03:48:32;99830.59;;;12.79;43.82
54816;BME280;40715;55.752;37.884;2022-10-15T03:50:59;99819.19;;;12.77;43.70
54816;BME280;40715;55.752;37.884;2022-10-15T03:53:26;99820.91;;;12.78;43.79
54816;BME280;40715;55.752;37.884;2022-10-15T03:55:53;99821.06;;;12.73;43.85
54816;BME280;40715;55.752;37.884;2022-10-15T03:58:20;99820.88;;;12.80;43.76
54816;BME280;40715;55.752;37.884;2022-10-15T04:00:48;99826.09;;;12.81;43.73
54816;BME280;40715;55.752;37.884;2022-10-15T04:03:15;99774.88;;;12.54;43.49
54816;BME280;40715;55.752;37.884;2022-10-15T04:05:49;99824.25;;;12.85;43.64
54816;BME280;40715;55.752;37.884;2022-10-15T04:08:18;99814.78;;;12.77;43.48
54816;BME280;40715;55.752;37.884;2022-10-15T04:10:45;99813.16;;;12.72;43.38
54816;BME280;40715;55.752;37.884;2022-10-15T04:13:12;99831.34;;;12.84;43.42
54816;BME280;40715;55.752;37.884;2022-10-15T04:15:39;99824.44;;;12.78;43.44
54816;BME280;40715;55.752;37.884;2022-10-15T04:18:06;99818.97;;;12.85;43.39
54816;BME280;40715;55.752;37.884;2022-10-15T04:20:33;99822.44;;;12.87;43.30
54816;BME280;40715;55.752;37.884;2022-10-15T04:23:00;99834.69;;;12.89;43.29
54816;BME280;40715;55.752;37.884;2022-10-15T04:25:27;99828.66;;;12.86;43.28
54816;BME280;40715;55.752;37.884;2022-10-15T04:27:54;99833.78;;;12.90;43.15
54816;BME280;40715;55.752;37.884;2022-10-15T04:30:21;99813.78;;;12.82;43.31
54816;BME280;40715;55.752;37.884;2022-10-15T04:32:50;99833.72;;;12.93;43.09
54816;BME280;40715;55.752;37.884;2022-10-15T04:35:18;99801.50;;;12.79;43.11
54816;BME280;40715;55.752;37.884;2022-10-15T04:37:45;99824.06;;;12.91;43.03
54816;BME280;40715;55.752;37.884;2022-10-15T04:40:12;99825.72;;;12.95;42.87
54816;BME280;40715;55.752;37.884;2022-10-15T04:42:40;99818.72;;;12.94;42.90
54816;BME280;40715;55.752;37.884;2022-10-15T04:45:08;99839.50;;;13.06;42.99
54816;BME280;40715;55.752;37.884;2022-10-15T04:47:36;99824.78;;;12.98;42.83
54816;BME280;40715;55.752;37.884;2022-10-15T04:50:03;99811.78;;;12.90;42.54
54816;BME280;40715;55.752;37.884;2022-10-15T04:52:30;99843.00;;;13.08;42.77
54816;BME280;40715;55.752;37.884;2022-10-15T04:54:57;99842.09;;;13.08;42.75
54816;BME280;40715;55.752;37.884;2022-10-15T04:57:24;99845.63;;;13.08;42.88
54816;BME280;40715;55.752;37.884;2022-10-15T04:59:52;99849.00;;;13.13;42.75
54816;BME280;40715;55.752;37.884;2022-10-15T05:02:21;99855.97;;;13.16;42.82
54816;BME280;40715;55.752;37.884;2022-10-15T05:04:48;99821.28;;;12.97;42.65
54816;BME280;40715;55.752;37.884;2022-10-15T05:07:15;99851.53;;;13.18;42.60
54816;BME280;40715;55.752;37.884;2022-10-15T05:09:42;99852.28;;;13.22;42.66
54816;BME280;40715;55.752;37.884;2022-10-15T05:12:11;99841.72;;;13.22;42.84
54816;BME280;40715;55.752;37.884;2022-10-15T05:14:38;99853.88;;;13.27;42.54
54816;BME280;40715;55.752;37.884;2022-10-15T05:17:05;99858.13;;;13.33;42.49
54816;BME280;40715;55.752;37.884;2022-10-15T05:19:32;99855.41;;;13.36;42.66
54816;BME280;40715;55.752;37.884;2022-10-15T05:21:59;99851.72;;;13.42;42.35
54816;BME280;40715;55.752;37.884;2022-10-15T05:24:26;99852.69;;;13.39;42.44
54816;BME280;40715;55.752;37.884;2022-10-15T05:26:53;99848.16;;;13.43;42.44
54816;BME280;40715;55.752;37.884;2022-10-15T05:29:20;99860.25;;;13.52;42.43
54816;BME280;40715;55.752;37.884;2022-10-15T05:31:49;99854.00;;;13.54;42.11
54816;BME280;40715;55.752;37.884;2022-10-15T05:34:17;99854.16;;;13.50;42.20
54816;BME280;40715;55.752;37.884;2022-10-15T05:36:44;99861.00;;;13.57;42.06
54816;BME280;40715;55.752;37.884;2022-10-15T05:39:11;99863.44;;;13.63;42.05
54816;BME280;40715;55.752;37.884;2022-10-15T05:41:37;99862.44;;;13.67;41.90
54816;BME280;40715;55.752;37.884;2022-10-15T05:44:04;99871.97;;;13.73;41.87
54816;BME280;40715;55.752;37.884;2022-10-15T05:46:31;99866.47;;;13.79;41.79
54816;BME280;40715;55.752;37.884;2022-10-15T05:48:58;99860.31;;;13.78;41.62
54816;BME280;40715;55.752;37.884;2022-10-15T05:51:26;99839.31;;;13.72;41.57
54816;BME280;40715;55.752;37.884;2022-10-15T05:53:55;99864.34;;;13.90;41.44
54816;BME280;40715;55.752;37.884;2022-10-15T05:56:23;99864.19;;;13.95;41.37
54816;BME280;40715;55.752;37.884;2022-10-15T05:58:51;99859.03;;;13.90;41.33
54816;BME280;40715;55.752;37.884;2022-10-15T06:01:18;99878.88;;;14.05;41.25
54816;BME280;40715;55.752;37.884;2022-10-15T06:03:45;99876.25;;;14.05;41.30
54816;BME280;40715;55.752;37.884;2022-10-15T06:06:18;99878.69;;;14.11;41.05
54816;BME280;40715;55.752;37.884;2022-10-15T06:08:46;99883.75;;;14.18;40.96
54816;BME280;40715;55.752;37.884;2022-10-15T06:11:13;99877.63;;;14.17;40.85
54816;BME280;40715;55.752;37.884;2022-10-15T06:13:41;99888.66;;;14.30;40.69
54816;BME280;40715;55.752;37.884;2022-10-15T06:16:09;99881.56;;;14.30;40.76
54816;BME280;40715;55.752;37.884;2022-10-15T06:18:37;99888.34;;;14.39;40.73
54816;BME280;40715;55.752;37.884;2022-10-15T06:21:06;99894.09;;;14.52;40.49
54816;BME280;40715;55.752;37.884;2022-10-15T06:23:33;99893.13;;;14.55;40.47
54816;BME280;40715;55.752;37.884;2022-10-15T06:26:04;99881.66;;;14.54;40.39
54816;BME280;40715;55.752;37.884;2022-10-15T06:28:32;99886.06;;;14.55;40.22
54816;BME280;40715;55.752;37.884;2022-10-15T06:31:00;99881.66;;;14.54;40.14
54816;BME280;40715;55.752;37.884;2022-10-15T06:33:28;99881.63;;;14.56;40.09
54816;BME280;40715;55.752;37.884;2022-10-15T06:36:02;99887.63;;;14.62;39.90
54816;BME280;40715;55.752;37.884;2022-10-15T06:38:31;99887.56;;;14.64;39.86
54816;BME280;40715;55.752;37.884;2022-10-15T06:40:58;99895.47;;;14.65;39.73
54816;BME280;40715;55.752;37.884;2022-10-15T06:43:25;99896.25;;;14.67;39.68
54816;BME280;40715;55.752;37.884;2022-10-15T06:45:54;99899.84;;;14.66;39.65
54816;BME280;40715;55.752;37.884;2022-10-15T06:48:21;99891.84;;;14.68;39.86
54816;BME280;40715;55.752;37.884;2022-10-15T06:50:47;99900.22;;;14.81;39.65
54816;BME280;40715;55.752;37.884;2022-10-15T06:53:15;99904.28;;;14.91;39.40
54816;BME280;40715;55.752;37.884;2022-10-15T06:55:42;99888.31;;;14.93;39.25
54816;BME280;40715;55.752;37.884;2022-10-15T06:58:09;99895.81;;;15.05;39.04
54816;BME280;40715;55.752;37.884;2022-10-15T07:00:36;99906.84;;;15.18;38.90
54816;BME280;40715;55.752;37.884;2022-10-15T07:03:04;99901.19;;;15.27;38.73
54816;BME280;40715;55.752;37.884;2022-10-15T07:05:31;99908.81;;;15.36;38.41
54816;BME280;40715;55.752;37.884;2022-10-15T07:07:59;99903.47;;;15.38;38.24
54816;BME280;40715;55.752;37.884;2022-10-15T07:10:26;99909.56;;;15.40;38.22
54816;BME280;40715;55.752;37.884;2022-10-15T07:12:54;99893.16;;;15.29;38.11
54816;BME280;40715;55.752;37.884;2022-10-15T07:15:21;99905.06;;;15.42;37.82
54816;BME280;40715;55.752;37.884;2022-10-15T07:17:50;99897.91;;;15.44;37.70
54816;BME280;40715;55.752;37.884;2022-10-15T07:20:18;99901.78;;;15.59;37.48
54816;BME280;40715;55.752;37.884;2022-10-15T07:22:47;99903.72;;;15.78;37.35
54816;BME280;40715;55.752;37.884;2022-10-15T07:25:14;99912.75;;;15.96;37.23
54816;BME280;40715;55.752;37.884;2022-10-15T07:27:41;99908.69;;;16.09;37.01
54816;BME280;40715;55.752;37.884;2022-10-15T07:30:09;99911.72;;;16.22;36.77
54816;BME280;40715;55.752;37.884;2022-10-15T07:32:36;99924.69;;;16.30;36.67
54816;BME280;40715;55.752;37.884;2022-10-15T07:35:03;99927.16;;;16.34;36.25
54816;BME280;40715;55.752;37.884;2022-10-15T07:37:31;99925.38;;;16.35;36.34
54816;BME280;40715;55.752;37.884;2022-10-15T07:39:58;99910.69;;;16.26;36.14
54816;BME280;40715;55.752;37.884;2022-10-15T07:42:25;99927.47;;;16.27;36.15
54816;BME280;40715;55.752;37.884;2022-10-15T07:44:52;99928.53;;;16.22;36.16
54816;BME280;40715;55.752;37.884;2022-10-15T07:47:19;99937.56;;;16.18;36.27
54816;BME280;40715;55.752;37.884;2022-10-15T07:49:46;99924.59;;;16.11;36.13
54816;BME280;40715;55.752;37.884;2022-10-15T07:52:13;99931.81;;;16.07;36.03
54816;BME280;40715;55.752;37.884;2022-10-15T07:54:41;99936.94;;;16.12;35.94
54816;BME280;40715;55.752;37.884;2022-10-15T07:57:08;99938.00;;;16.08;36.06
54816;BME280;40715;55.752;37.884;2022-10-15T07:59:34;99936.91;;;16.13;35.87
54816;BME280;40715;55.752;37.884;2022-10-15T08:02:02;99936.13;;;16.10;36.22
54816;BME280;40715;55.752;37.884;2022-10-15T08:04:29;99937.06;;;16.09;36.19
54816;BME280;40715;55.752;37.884;2022-10-15T08:06:56;99932.78;;;16.04;36.24
54816;BME280;40715;55.752;37.884;2022-10-15T08:09:23;99934.72;;;16.01;36.30
54816;BME280;40715;55.752;37.884;2022-10-15T08:11:50;99938.41;;;15.97;36.13
54816;BME280;40715;55.752;37.884;2022-10-15T08:14:17;99934.03;;;15.96;36.23
54816;BME280;40715;55.752;37.884;2022-10-15T08:16:44;99942.50;;;16.05;36.17
54816;BME280;40715;55.752;37.884;2022-10-15T08:19:11;99940.81;;;16.03;36.00
54816;BME280;40715;55.752;37.884;2022-10-15T08:21:38;99948.06;;;15.99;36.00
54816;BME280;40715;55.752;37.884;2022-10-15T08:24:07;99948.06;;;15.99;36.10
54816;BME280;40715;55.752;37.884;2022-10-15T08:26:34;99941.72;;;16.03;35.86
54816;BME280;40715;55.752;37.884;2022-10-15T08:29:02;99929.47;;;15.99;35.92
54816;BME280;40715;55.752;37.884;2022-10-15T08:31:29;99950.19;;;16.13;35.89
54816;BME280;40715;55.752;37.884;2022-10-15T08:34:01;99918.84;;;15.99;35.72
54816;BME280;40715;55.752;37.884;2022-10-15T08:36:28;99948.25;;;16.17;35.66
54816;BME280;40715;55.752;37.884;2022-10-15T08:38:55;99939.78;;;16.07;35.60
54816;BME280;40715;55.752;37.884;2022-10-15T08:43:58;99946.63;;;16.13;35.49
54816;BME280;40715;55.752;37.884;2022-10-15T08:46:38;99962.25;;;16.22;35.42
54816;BME280;40715;55.752;37.884;2022-10-15T08:49:21;99963.94;;;16.23;35.20
54816;BME280;40715;55.752;37.884;2022-10-15T08:51:55;99960.31;;;16.26;35.18
54816;BME280;40715;55.752;37.884;2022-10-15T08:54:23;99953.75;;;16.12;35.15
54816;BME280;40715;55.752;37.884;2022-10-15T08:56:54;99959.88;;;16.14;35.07
54816;BME280;40715;55.752;37.884;2022-10-15T09:02:34;99953.56;;;16.17;34.82
54816;BME280;40715;55.752;37.884;2022-10-15T09:05:58;99959.66;;;16.20;35.09
54816;BME280;40715;55.752;37.884;2022-10-15T09:08:27;99965.19;;;16.14;34.91
54816;BME280;40715;55.752;37.884;2022-10-15T09:11:05;99966.53;;;16.02;35.45
54816;BME280;40715;55.752;37.884;2022-10-15T09:13:37;99951.91;;;15.92;35.13
54816;BME280;40715;55.752;37.884;2022-10-15T09:18:47;99929.47;;;15.76;35.21
54816;BME280;40715;55.752;37.884;2022-10-15T09:21:15;99969.06;;;15.83;35.02
54816;BME280;40715;55.752;37.884;2022-10-15T09:23:42;99965.75;;;15.77;35.16
54816;BME280;40715;55.752;37.884;2022-10-15T09:26:24;99964.88;;;15.76;35.11
54816;BME280;40715;55.752;37.884;2022-10-15T09:29:26;99956.69;;;15.82;35.22
54816;BME280;40715;55.752;37.884;2022-10-15T09:32:24;99962.81;;;15.84;35.16
54816;BME280;40715;55.752;37.884;2022-10-15T09:37:49;99962.88;;;15.83;35.04
54816;BME280;40715;55.752;37.884;2022-10-15T09:43:07;99960.03;;;15.87;35.03
54816;BME280;40715;55.752;37.884;2022-10-15T09:45:35;99960.66;;;15.94;34.95
54816;BME280;40715;55.752;37.884;2022-10-15T09:48:13;99964.41;;;16.12;34.91
54816;BME280;40715;55.752;37.884;2022-10-15T09:50:45;99970.16;;;16.24;34.68
54816;BME280;40715;55.752;37.884;2022-10-15T09:56:48;99956.72;;;16.27;34.42
54816;BME280;40715;55.752;37.884;2022-10-15T09:59:19;99966.66;;;16.21;34.27
54816;BME280;40715;55.752;37.884;2022-10-15T10:01:58;99965.88;;;16.19;34.29
54816;BME280;40715;55.752;37.884;2022-10-15T10:04:32;99957.91;;;16.19;34.14
54816;BME280;40715;55.752;37.884;2022-10-15T10:07:02;99925.75;;;16.03;34.35
54816;BME280;40715;55.752;37.884;2022-10-15T10:12:07;99954.84;;;16.29;34.57
54816;BME280;40715;55.752;37.884;2022-10-15T10:14:59;99953.66;;;16.37;34.34
54816;BME280;40715;55.752;37.884;2022-10-15T10:17:30;99942.25;;;16.34;34.48
54816;BME280;40715;55.752;37.884;2022-10-15T10:22:53;99962.41;;;15.95;34.83
54816;BME280;40715;55.752;37.884;2022-10-15T10:25:41;99940.16;;;15.50;35.25
54816;BME280;40715;55.752;37.884;2022-10-15T10:30:48;99953.84;;;15.40;35.41
54816;BME280;40715;55.752;37.884;2022-10-15T10:33:27;99941.94;;;15.26;35.52
54816;BME280;40715;55.752;37.884;2022-10-15T10:35:55;99952.50;;;15.28;35.45
54816;BME280;40715;55.752;37.884;2022-10-15T10:38:29;99937.69;;;15.22;35.77
54816;BME280;40715;55.752;37.884;2022-10-15T10:41:08;99953.06;;;15.36;35.45
54816;BME280;40715;55.752;37.884;2022-10-15T10:43:37;99950.66;;;15.30;35.57
54816;BME280;40715;55.752;37.884;2022-10-15T10:46:16;99958.19;;;15.42;35.55
54816;BME280;40715;55.752;37.884;2022-10-15T10:48:46;99954.00;;;15.59;35.49
54816;BME280;40715;55.752;37.884;2022-10-15T10:56:36;99944.88;;;15.66;35.31
54816;BME280;40715;55.752;37.884;2022-10-15T10:59:15;99951.69;;;15.73;35.40
54816;BME280;40715;55.752;37.884;2022-10-15T11:01:46;99952.72;;;15.69;35.34
54816;BME280;40715;55.752;37.884;2022-10-15T11:04:28;99935.28;;;15.62;35.47
54816;BME280;40715;55.752;37.884;2022-10-15T11:07:20;99939.63;;;15.64;35.44
54816;BME280;40715;55.752;37.884;2022-10-15T11:10:21;99952.50;;;15.75;35.37
54816;BME280;40715;55.752;37.884;2022-10-15T11:16:19;99950.28;;;15.88;35.36
54816;BME280;40715;55.752;37.884;2022-10-15T11:29:27;99944.19;;;16.08;35.35
54816;BME280;40715;55.752;37.884;2022-10-15T11:47:18;99946.13;;;16.47;34.78
54816;BME280;40715;55.752;37.884;2022-10-15T11:49:49;99910.16;;;16.38;34.68
54816;BME280;40715;55.752;37.884;2022-10-15T11:53:11;99949.47;;;16.52;34.87
54816;BME280;40715;55.752;37.884;2022-10-15T11:57:49;99944.28;;;16.49;34.66
54816;BME280;40715;55.752;37.884;2022-10-15T12:02:53;99941.69;;;16.48;34.58
54816;BME280;40715;55.752;37.884;2022-10-15T12:05:27;99947.94;;;16.47;34.69
54816;BME280;40715;55.752;37.884;2022-10-15T12:07:57;99940.28;;;16.39;34.77
54816;BME280;40715;55.752;37.884;2022-10-15T12:15:59;99944.97;;;16.10;34.91
54816;BME280;40715;55.752;37.884;2022-10-15T12:18:51;99938.09;;;16.04;34.93
54816;BME280;40715;55.752;37.884;2022-10-15T12:23:57;99931.63;;;15.90;35.27
54816;BME280;40715;55.752;37.884;2022-10-15T12:28:53;99943.28;;;15.85;35.32
54816;BME280;40715;55.752;37.884;2022-10-15T12:31:23;99930.34;;;15.76;35.18
54816;BME280;40715;55.752;37.884;2022-10-15T12:33:52;99936.44;;;15.78;35.30
54816;BME280;40715;55.752;37.884;2022-10-15T12:36:25;99938.25;;;15.78;35.26
54816;BME280;40715;55.752;37.884;2022-10-15T12:38:58;99935.81;;;15.71;35.40
54816;BME280;40715;55.752;37.884;2022-10-15T12:41:44;99940.16;;;15.74;35.48
54816;BME280;40715;55.752;37.884;2022-10-15T12:44:30;99934.97;;;15.71;35.32
54816;BME280;40715;55.752;37.884;2022-10-15T12:46:58;99924.69;;;15.62;35.45
54816;BME280;40715;55.752;37.884;2022-10-15T12:51:53;99942.88;;;15.73;35.39
54816;BME280;40715;55.752;37.884;2022-10-15T12:54:36;99928.16;;;15.64;35.41
54816;BME280;40715;55.752;37.884;2022-10-15T13:00:27;99924.09;;;15.30;35.66
54816;BME280;40715;55.752;37.884;2022-10-15T13:02:55;99928.09;;;15.18;35.74
54816;BME280;40715;55.752;37.884;2022-10-15T13:05:30;99931.00;;;15.10;35.78
54816;BME280;40715;55.752;37.884;2022-10-15T13:08:00;99934.97;;;14.98;36.16
54816;BME280;40715;55.752;37.884;2022-10-15T13:10:39;99929.97;;;14.89;36.23
54816;BME280;40715;55.752;37.884;2022-10-15T13:13:13;99929.59;;;14.75;36.39
54816;BME280;40715;55.752;37.884;2022-10-15T13:15:41;99929.94;;;14.65;36.47
54816;BME280;40715;55.752;37.884;2022-10-15T13:18:20;99926.97;;;14.48;36.54
54816;BME280;40715;55.752;37.884;2022-10-15T13:20:50;99933.34;;;14.41;36.75
54816;BME280;40715;55.752;37.884;2022-10-15T13:23:26;99932.88;;;14.29;36.82
54816;BME280;40715;55.752;37.884;2022-10-15T13:26:24;99935.69;;;14.23;36.93
54816;BME280;40715;55.752;37.884;2022-10-15T13:28:56;99924.06;;;14.01;37.02
54816;BME280;40715;55.752;37.884;2022-10-15T13:31:31;99930.41;;;13.95;37.66
54816;BME280;40715;55.752;37.884;2022-10-15T13:34:13;99936.06;;;13.84;37.73
54816;BME280;40715;55.752;37.884;2022-10-15T13:36:43;99930.94;;;13.78;37.76
54816;BME280;40715;55.752;37.884;2022-10-15T13:42:02;99920.78;;;13.64;38.22
54816;BME280;40715;55.752;37.884;2022-10-15T13:44:31;99923.44;;;13.64;38.10
54816;BME280;40715;55.752;37.884;2022-10-15T13:46:58;99923.53;;;13.59;38.23
54816;BME280;40715;55.752;37.884;2022-10-15T13:49:25;99926.25;;;13.58;38.38
54816;BME280;40715;55.752;37.884;2022-10-15T13:51:54;99925.44;;;13.56;38.33
54816;BME280;40715;55.752;37.884;2022-10-15T13:54:24;99935.22;;;13.52;38.52
54816;BME280;40715;55.752;37.884;2022-10-15T13:56:55;99929.94;;;13.52;38.47
54816;BME280;40715;55.752;37.884;2022-10-15T13:59:28;99935.31;;;13.49;38.66
54816;BME280;40715;55.752;37.884;2022-10-15T14:01:59;99934.47;;;13.49;38.66
54816;BME280;40715;55.752;37.884;2022-10-15T14:04:28;99922.41;;;13.38;38.75
54816;BME280;40715;55.752;37.884;2022-10-15T14:06:58;99935.41;;;13.46;38.77
54816;BME280;40715;55.752;37.884;2022-10-15T14:09:33;99940.00;;;13.39;38.96
54816;BME280;40715;55.752;37.884;2022-10-15T14:12:04;99944.53;;;13.36;38.96
54816;BME280;40715;55.752;37.884;2022-10-15T14:14:40;99949.06;;;13.30;39.13
54816;BME280;40715;55.752;37.884;2022-10-15T14:19:59;99944.97;;;13.19;39.23
54816;BME280;40715;55.752;37.884;2022-10-15T14:22:50;99922.53;;;13.01;39.23
54816;BME280;40715;55.752;37.884;2022-10-15T14:25:21;99946.94;;;13.12;39.33
54816;BME280;40715;55.752;37.884;2022-10-15T14:27:49;99937.47;;;13.03;39.53
54816;BME280;40715;55.752;37.884;2022-10-15T14:30:27;99955.75;;;13.11;39.48
54816;BME280;40715;55.752;37.884;2022-10-15T14:32:56;99930.66;;;12.94;39.54
54816;BME280;40715;55.752;37.884;2022-10-15T14:35:29;99954.31;;;12.99;39.72
54816;BME280;40715;55.752;37.884;2022-10-15T14:38:00;99945.81;;;12.88;39.75
54816;BME280;40715;55.752;37.884;2022-10-15T14:40:28;99962.47;;;12.91;39.65
54816;BME280;40715;55.752;37.884;2022-10-15T14:45:27;99968.03;;;12.81;39.97
54816;BME280;40715;55.752;37.884;2022-10-15T14:48:06;99973.44;;;12.76;40.11
54816;BME280;40715;55.752;37.884;2022-10-15T14:50:39;99960.41;;;12.70;40.24
54816;BME280;40715;55.752;37.884;2022-10-15T14:53:09;99957.19;;;12.57;40.28
54816;BME280;40715;55.752;37.884;2022-10-15T14:55:47;99973.06;;;12.57;40.49
54816;BME280;40715;55.752;37.884;2022-10-15T14:58:22;99981.16;;;12.49;40.57
54816;BME280;40715;55.752;37.884;2022-10-15T15:00:58;99975.09;;;12.46;40.87
54816;BME280;40715;55.752;37.884;2022-10-15T15:03:28;99962.00;;;12.39;40.88
54816;BME280;40715;55.752;37.884;2022-10-15T15:05:56;99953.56;;;12.25;40.92
54816;BME280;40715;55.752;37.884;2022-10-15T15:08:25;99975.34;;;12.35;41.17